sensor_id;sensor_type;location;lat;lon;timestamp;temperature;humidity
8707;DHT22;4390;49.302;9.306;2023-02-15T00:01:40;2.90;98.10
8707;DHT22;4390;49.302;9.306;2023-02-15T00:04:08;3.00;98.10
8707;DHT22;4390;49.302;9.306;2023-02-15T00:06:36;2.70;98.30
8707;DHT22;4390;49.302;9.306;2023-02-15T00:09:03;2.50;98.30
8707;DHT22;4390;49.302;9.306;2023-02-15T00:11:30;2.60;98.30
8707;DHT22;4390;49.302;9.306;2023-02-15T00:14:22;2.40;98.30
8707;DHT22;4390;49.302;9.306;2023-02-15T00:16:51;2.40;98.30
8707;DHT22;4390;49.302;9.306;2023-02-15T00:19:19;2.50;98.30
8707;DHT22;4390;49.302;9.306;2023-02-15T00:21:48;2.50;98.30
8707;DHT22;4390;49.302;9.306;2023-02-15T00:24:16;2.50;98.30
8707;DHT22;4390;49.302;9.306;2023-02-15T00:26:44;2.40;98.30
8707;DHT22;4390;49.302;9.306;2023-02-15T00:29:13;2.40;98.30
8707;DHT22;4390;49.302;9.306;2023-02-15T00:31:41;2.40;98.30
8707;DHT22;4390;49.302;9.306;2023-02-15T00:36:38;2.50;98.30
8707;DHT22;4390;49.302;9.306;2023-02-15T00:39:05;2.60;98.30
8707;DHT22;4390;49.302;9.306;2023-02-15T00:41:33;2.60;98.30
8707;DHT22;4390;49.302;9.306;2023-02-15T00:44:00;2.50;98.30
8707;DHT22;4390;49.302;9.306;2023-02-15T00:46:29;2.50;98.30
8707;DHT22;4390;49.302;9.306;2023-02-15T00:48:55;2.50;98.30
8707;DHT22;4390;49.302;9.306;2023-02-15T00:51:22;2.60;98.30
8707;DHT22;4390;49.302;9.306;2023-02-15T00:53:49;2.60;98.30
8707;DHT22;4390;49.302;9.306;2023-02-15T00:56:16;2.50;98.30
8707;DHT22;4390;49.302;9.306;2023-02-15T00:58:43;2.70;98.20
8707;DHT22;4390;49.302;9.306;2023-02-15T01:01:18;2.60;98.10
8707;DHT22;4390;49.302;9.306;2023-02-15T01:03:45;2.70;98.00
8707;DHT22;4390;49.302;9.306;2023-02-15T01:06:14;2.60;97.90
8707;DHT22;4390;49.302;9.306;2023-02-15T01:08:43;2.50;98.00
8707;DHT22;4390;49.302;9.306;2023-02-15T01:11:13;2.40;98.30
8707;DHT22;4390;49.302;9.306;2023-02-15T01:13:41;2.40;98.30
8707;DHT22;4390;49.302;9.306;2023-02-15T01:16:08;2.40;98.30
8707;DHT22;4390;49.302;9.306;2023-02-15T01:18:35;2.40;98.30
8707;DHT22;4390;49.302;9.306;2023-02-15T01:21:11;2.40;98.30
8707;DHT22;4390;49.302;9.306;2023-02-15T01:23:38;2.40;98.30
8707;DHT22;4390;49.302;9.306;2023-02-15T01:26:04;2.40;98.30
8707;DHT22;4390;49.302;9.306;2023-02-15T01:28:31;2.20;98.30
8707;DHT22;4390;49.302;9.306;2023-02-15T01:30:58;2.20;98.30
8707;DHT22;4390;49.302;9.306;2023-02-15T01:33:25;2.30;98.30
8707;DHT22;4390;49.302;9.306;2023-02-15T01:35:57;2.30;98.30
8707;DHT22;4390;49.302;9.306;2023-02-15T01:38:23;2.30;98.30
8707;DHT22;4390;49.302;9.306;2023-02-15T01:40:52;2.10;98.30
8707;DHT22;4390;49.302;9.306;2023-02-15T01:43:19;2.00;98.30
8707;DHT22;4390;49.302;9.306;2023-02-15T01:45:47;2.00;98.30
8707;DHT22;4390;49.302;9.306;2023-02-15T01:50:53;2.20;98.30
8707;DHT22;4390;49.302;9.306;2023-02-15T01:53:27;2.30;98.10
8707;DHT22;4390;49.302;9.306;2023-02-15T01:56:02;2.30;97.80
8707;DHT22;4390;49.302;9.306;2023-02-15T01:58:30;2.20;97.80
8707;DHT22;4390;49.302;9.306;2023-02-15T02:01:00;2.20;97.90
8707;DHT22;4390;49.302;9.306;2023-02-15T02:03:56;2.10;97.90
8707;DHT22;4390;49.302;9.306;2023-02-15T02:06:26;2.00;98.30
8707;DHT22;4390;49.302;9.306;2023-02-15T02:08:54;1.90;98.20
8707;DHT22;4390;49.302;9.306;2023-02-15T02:11:21;1.80;98.30
8707;DHT22;4390;49.302;9.306;2023-02-15T02:13:48;1.90;98.30
8707;DHT22;4390;49.302;9.306;2023-02-15T02:25:35;1.70;98.30
8707;DHT22;4390;49.302;9.306;2023-02-15T02:36:49;1.80;98.00
8707;DHT22;4390;49.302;9.306;2023-02-15T02:39:27;1.80;98.00
8707;DHT22;4390;49.302;9.306;2023-02-15T02:42:18;1.70;98.00
8707;DHT22;4390;49.302;9.306;2023-02-15T02:44:52;1.70;98.20
8707;DHT22;4390;49.302;9.306;2023-02-15T02:47:26;1.70;98.20
8707;DHT22;4390;49.302;9.306;2023-02-15T02:50:01;1.70;98.10
8707;DHT22;4390;49.302;9.306;2023-02-15T03:00:28;1.60;98.30
8707;DHT22;4390;49.302;9.306;2023-02-15T03:03:01;1.70;98.10
8707;DHT22;4390;49.302;9.306;2023-02-15T03:05:33;1.60;98.10
8707;DHT22;4390;49.302;9.306;2023-02-15T03:08:03;1.70;98.00
8707;DHT22;4390;49.302;9.306;2023-02-15T03:10:35;1.80;97.70
8707;DHT22;4390;49.302;9.306;2023-02-15T03:13:04;1.80;97.60
8707;DHT22;4390;49.302;9.306;2023-02-15T03:15:35;1.90;97.20
8707;DHT22;4390;49.302;9.306;2023-02-15T03:18:25;1.90;96.80
8707;DHT22;4390;49.302;9.306;2023-02-15T03:20:55;1.90;96.70
8707;DHT22;4390;49.302;9.306;2023-02-15T03:23:24;1.80;96.80
8707;DHT22;4390;49.302;9.306;2023-02-15T03:25:57;1.60;97.00
8707;DHT22;4390;49.302;9.306;2023-02-15T03:28:33;1.50;97.20
8707;DHT22;4390;49.302;9.306;2023-02-15T03:31:04;1.30;97.80
8707;DHT22;4390;49.302;9.306;2023-02-15T03:33:32;1.20;98.10
8707;DHT22;4390;49.302;9.306;2023-02-15T03:36:11;1.20;98.30
8707;DHT22;4390;49.302;9.306;2023-02-15T03:38:49;1.20;98.20
8707;DHT22;4390;49.302;9.306;2023-02-15T03:41:18;1.30;98.20
8707;DHT22;4390;49.302;9.306;2023-02-15T03:43:55;1.40;97.90
8707;DHT22;4390;49.302;9.306;2023-02-15T03:46:28;1.50;97.60
8707;DHT22;4390;49.302;9.306;2023-02-15T03:49:18;1.60;97.40
8707;DHT22;4390;49.302;9.306;2023-02-15T03:51:48;1.40;97.80
8707;DHT22;4390;49.302;9.306;2023-02-15T03:54:18;1.70;97.30
8707;DHT22;4390;49.302;9.306;2023-02-15T03:57:07;1.60;97.00
8707;DHT22;4390;49.302;9.306;2023-02-15T03:59:54;1.50;97.00
8707;DHT22;4390;49.302;9.306;2023-02-15T04:03:07;1.50;97.00
8707;DHT22;4390;49.302;9.306;2023-02-15T04:05:35;1.40;97.00
8707;DHT22;4390;49.302;9.306;2023-02-15T04:08:02;1.30;97.50
8707;DHT22;4390;49.302;9.306;2023-02-15T04:10:29;1.40;97.40
8707;DHT22;4390;49.302;9.306;2023-02-15T04:13:14;1.40;97.30
8707;DHT22;4390;49.302;9.306;2023-02-15T04:15:41;1.30;97.60
8707;DHT22;4390;49.302;9.306;2023-02-15T04:18:26;1.40;97.40
8707;DHT22;4390;49.302;9.306;2023-02-15T04:21:12;1.50;97.30
8707;DHT22;4390;49.302;9.306;2023-02-15T04:23:57;1.50;97.10
8707;DHT22;4390;49.302;9.306;2023-02-15T04:26:42;1.30;97.10
8707;DHT22;4390;49.302;9.306;2023-02-15T04:29:09;1.20;97.90
8707;DHT22;4390;49.302;9.306;2023-02-15T04:31:36;1.20;97.80
8707;DHT22;4390;49.302;9.306;2023-02-15T04:34:03;1.30;98.00
8707;DHT22;4390;49.302;9.306;2023-02-15T04:36:29;1.30;97.60
8707;DHT22;4390;49.302;9.306;2023-02-15T04:38:56;1.30;97.70
8707;DHT22;4390;49.302;9.306;2023-02-15T04:41:23;1.30;97.40
8707;DHT22;4390;49.302;9.306;2023-02-15T04:43:49;1.30;97.40
8707;DHT22;4390;49.302;9.306;2023-02-15T04:46:16;1.30;97.40
8707;DHT22;4390;49.302;9.306;2023-02-15T04:48:43;1.30;97.50
8707;DHT22;4390;49.302;9.306;2023-02-15T04:51:10;1.40;97.30
8707;DHT22;4390;49.302;9.306;2023-02-15T04:53:37;1.30;97.50
8707;DHT22;4390;49.302;9.306;2023-02-15T04:56:04;1.40;97.40
8707;DHT22;4390;49.302;9.306;2023-02-15T04:58:30;1.30;97.20
8707;DHT22;4390;49.302;9.306;2023-02-15T05:00:58;1.10;97.50
8707;DHT22;4390;49.302;9.306;2023-02-15T05:03:25;0.90;98.00
8707;DHT22;4390;49.302;9.306;2023-02-15T05:05:51;0.80;98.30
8707;DHT22;4390;49.302;9.306;2023-02-15T05:08:18;0.90;98.30
8707;DHT22;4390;49.302;9.306;2023-02-15T05:10:48;1.00;98.30
8707;DHT22;4390;49.302;9.306;2023-02-15T05:13:15;1.20;97.90
8707;DHT22;4390;49.302;9.306;2023-02-15T05:15:47;1.40;97.20
8707;DHT22;4390;49.302;9.306;2023-02-15T05:18:17;1.40;97.00
8707;DHT22;4390;49.302;9.306;2023-02-15T05:20:45;1.40;96.90
8707;DHT22;4390;49.302;9.306;2023-02-15T05:23:12;1.40;96.90
8707;DHT22;4390;49.302;9.306;2023-02-15T05:25:39;1.30;96.90
8707;DHT22;4390;49.302;9.306;2023-02-15T05:28:27;1.40;96.80
8707;DHT22;4390;49.302;9.306;2023-02-15T05:33:29;1.20;96.80
8707;DHT22;4390;49.302;9.306;2023-02-15T05:35:56;1.10;97.00
8707;DHT22;4390;49.302;9.306;2023-02-15T05:38:23;1.10;97.10
8707;DHT22;4390;49.302;9.306;2023-02-15T05:40:53;1.20;96.90
8707;DHT22;4390;49.302;9.306;2023-02-15T05:43:20;1.30;96.80
8707;DHT22;4390;49.302;9.306;2023-02-15T05:45:47;1.30;96.80
8707;DHT22;4390;49.302;9.306;2023-02-15T05:48:15;1.40;96.40
8707;DHT22;4390;49.302;9.306;2023-02-15T05:50:42;1.30;96.30
8707;DHT22;4390;49.302;9.306;2023-02-15T05:53:09;1.30;96.60
8707;DHT22;4390;49.302;9.306;2023-02-15T05:55:39;1.40;96.20
8707;DHT22;4390;49.302;9.306;2023-02-15T05:58:07;1.60;96.10
8707;DHT22;4390;49.302;9.306;2023-02-15T06:00:34;1.60;95.50
8707;DHT22;4390;49.302;9.306;2023-02-15T06:03:03;1.60;95.60
8707;DHT22;4390;49.302;9.306;2023-02-15T06:05:30;1.40;95.80
8707;DHT22;4390;49.302;9.306;2023-02-15T06:07:57;1.30;96.30
8707;DHT22;4390;49.302;9.306;2023-02-15T06:10:23;1.20;96.30
8707;DHT22;4390;49.302;9.306;2023-02-15T06:12:50;1.10;96.40
8707;DHT22;4390;49.302;9.306;2023-02-15T06:15:17;1.00;96.70
8707;DHT22;4390;49.302;9.306;2023-02-15T06:17:43;0.90;97.00
8707;DHT22;4390;49.302;9.306;2023-02-15T06:20:11;0.70;97.40
8707;DHT22;4390;49.302;9.306;2023-02-15T06:22:37;0.60;97.70
8707;DHT22;4390;49.302;9.306;2023-02-15T06:25:04;0.50;97.90
8707;DHT22;4390;49.302;9.306;2023-02-15T06:27:31;0.40;98.20
8707;DHT22;4390;49.302;9.306;2023-02-15T06:29:58;0.30;98.30
8707;DHT22;4390;49.302;9.306;2023-02-15T06:32:25;0.30;98.30
8707;DHT22;4390;49.302;9.306;2023-02-15T06:34:52;0.40;98.30
8707;DHT22;4390;49.302;9.306;2023-02-15T06:37:18;0.60;98.00
8707;DHT22;4390;49.302;9.306;2023-02-15T06:39:45;0.60;97.60
8707;DHT22;4390;49.302;9.306;2023-02-15T06:42:12;0.30;98.00
8707;DHT22;4390;49.302;9.306;2023-02-15T06:44:39;0.20;98.30
8707;DHT22;4390;49.302;9.306;2023-02-15T06:47:06;0.20;98.30
8707;DHT22;4390;49.302;9.306;2023-02-15T06:49:32;0.20;98.30
8707;DHT22;4390;49.302;9.306;2023-02-15T06:51:59;0.30;98.30
8707;DHT22;4390;49.302;9.306;2023-02-15T06:54:26;0.50;98.30
8707;DHT22;4390;49.302;9.306;2023-02-15T06:56:52;0.60;98.10
8707;DHT22;4390;49.302;9.306;2023-02-15T06:59:19;0.60;97.70
8707;DHT22;4390;49.302;9.306;2023-02-15T07:01:45;0.60;97.70
8707;DHT22;4390;49.302;9.306;2023-02-15T07:04:12;0.70;97.80
8707;DHT22;4390;49.302;9.306;2023-02-15T07:06:39;0.80;97.10
8707;DHT22;4390;49.302;9.306;2023-02-15T07:09:06;0.60;97.00
8707;DHT22;4390;49.302;9.306;2023-02-15T07:11:33;0.70;97.30
8707;DHT22;4390;49.302;9.306;2023-02-15T07:14:19;0.80;97.30
8707;DHT22;4390;49.302;9.306;2023-02-15T07:16:45;0.90;97.00
8707;DHT22;4390;49.302;9.306;2023-02-15T07:19:12;0.90;96.60
8707;DHT22;4390;49.302;9.306;2023-02-15T07:21:39;0.60;97.00
8707;DHT22;4390;49.302;9.306;2023-02-15T07:24:06;0.30;97.60
8707;DHT22;4390;49.302;9.306;2023-02-15T07:26:33;0.30;98.20
8707;DHT22;4390;49.302;9.306;2023-02-15T07:29:00;0.40;98.30
8707;DHT22;4390;49.302;9.306;2023-02-15T07:31:26;0.40;98.20
8707;DHT22;4390;49.302;9.306;2023-02-15T07:33:53;0.40;98.20
8707;DHT22;4390;49.302;9.306;2023-02-15T07:36:20;0.40;98.30
8707;DHT22;4390;49.302;9.306;2023-02-15T07:38:46;0.40;98.20
8707;DHT22;4390;49.302;9.306;2023-02-15T07:41:14;0.20;98.30
8707;DHT22;4390;49.302;9.306;2023-02-15T07:43:43;0.20;98.30
8707;DHT22;4390;49.302;9.306;2023-02-15T07:46:15;0.10;98.30
8707;DHT22;4390;49.302;9.306;2023-02-15T07:48:43;0.20;98.30
8707;DHT22;4390;49.302;9.306;2023-02-15T07:51:11;0.20;98.30
8707;DHT22;4390;49.302;9.306;2023-02-15T07:53:38;0.50;98.30
8707;DHT22;4390;49.302;9.306;2023-02-15T07:56:09;0.60;97.80
8707;DHT22;4390;49.302;9.306;2023-02-15T07:58:36;0.70;97.50
8707;DHT22;4390;49.302;9.306;2023-02-15T08:01:25;0.70;97.50
8707;DHT22;4390;49.302;9.306;2023-02-15T08:03:53;0.80;97.50
8707;DHT22;4390;49.302;9.306;2023-02-15T08:06:22;0.80;97.20
8707;DHT22;4390;49.302;9.306;2023-02-15T08:08:49;0.90;97.00
8707;DHT22;4390;49.302;9.306;2023-02-15T08:11:24;0.90;96.90
8707;DHT22;4390;49.302;9.306;2023-02-15T08:16:23;0.90;96.50
8707;DHT22;4390;49.302;9.306;2023-02-15T08:18:52;0.70;96.90
8707;DHT22;4390;49.302;9.306;2023-02-15T08:21:19;0.70;97.30
8707;DHT22;4390;49.302;9.306;2023-02-15T08:23:48;0.60;97.50
8707;DHT22;4390;49.302;9.306;2023-02-15T08:26:15;0.50;97.20
8707;DHT22;4390;49.302;9.306;2023-02-15T08:28:43;0.70;97.50
8707;DHT22;4390;49.302;9.306;2023-02-15T08:31:12;0.80;97.00
8707;DHT22;4390;49.302;9.306;2023-02-15T08:33:40;0.80;97.00
8707;DHT22;4390;49.302;9.306;2023-02-15T08:36:10;0.70;96.90
8707;DHT22;4390;49.302;9.306;2023-02-15T08:38:37;0.60;97.40
8707;DHT22;4390;49.302;9.306;2023-02-15T08:41:22;0.60;97.60
8707;DHT22;4390;49.302;9.306;2023-02-15T08:43:53;0.70;97.50
8707;DHT22;4390;49.302;9.306;2023-02-15T08:46:22;0.90;97.20
8707;DHT22;4390;49.302;9.306;2023-02-15T08:48:49;1.00;96.70
8707;DHT22;4390;49.302;9.306;2023-02-15T08:51:22;0.90;96.60
8707;DHT22;4390;49.302;9.306;2023-02-15T08:53:52;1.10;96.40
8707;DHT22;4390;49.302;9.306;2023-02-15T08:56:21;1.00;96.30
8707;DHT22;4390;49.302;9.306;2023-02-15T08:58:49;0.90;96.40
8707;DHT22;4390;49.302;9.306;2023-02-15T09:01:23;1.10;96.50
8707;DHT22;4390;49.302;9.306;2023-02-15T09:03:53;1.20;95.80
8707;DHT22;4390;49.302;9.306;2023-02-15T09:06:22;1.50;95.80
8707;DHT22;4390;49.302;9.306;2023-02-15T09:08:49;1.60;95.30
8707;DHT22;4390;49.302;9.306;2023-02-15T09:11:19;1.50;95.10
8707;DHT22;4390;49.302;9.306;2023-02-15T09:13:52;1.30;95.40
8707;DHT22;4390;49.302;9.306;2023-02-15T09:16:20;1.30;95.90
8707;DHT22;4390;49.302;9.306;2023-02-15T09:18:48;1.40;95.80
8707;DHT22;4390;49.302;9.306;2023-02-15T09:21:17;1.40;95.50
8707;DHT22;4390;49.302;9.306;2023-02-15T09:23:47;1.40;95.50
8707;DHT22;4390;49.302;9.306;2023-02-15T09:26:16;1.00;95.90
8707;DHT22;4390;49.302;9.306;2023-02-15T09:28:43;1.00;96.90
8707;DHT22;4390;49.302;9.306;2023-02-15T09:31:19;1.10;96.50
8707;DHT22;4390;49.302;9.306;2023-02-15T09:33:47;1.30;96.50
8707;DHT22;4390;49.302;9.306;2023-02-15T09:36:20;1.40;96.20
8707;DHT22;4390;49.302;9.306;2023-02-15T09:38:56;1.40;95.90
8707;DHT22;4390;49.302;9.306;2023-02-15T09:41:50;1.50;95.90
8707;DHT22;4390;49.302;9.306;2023-02-15T09:58:54;1.60;95.80
8707;DHT22;4390;49.302;9.306;2023-02-15T10:15:17;2.10;94.20
8707;DHT22;4390;49.302;9.306;2023-02-15T10:28:56;1.70;95.60
8707;DHT22;4390;49.302;9.306;2023-02-15T10:31:51;2.10;95.30
8707;DHT22;4390;49.302;9.306;2023-02-15T10:45:43;2.10;94.60
8707;DHT22;4390;49.302;9.306;2023-02-15T10:48:34;2.30;94.50
8707;DHT22;4390;49.302;9.306;2023-02-15T10:51:29;2.30;94.40
8707;DHT22;4390;49.302;9.306;2023-02-15T10:54:36;2.30;94.80
8707;DHT22;4390;49.302;9.306;2023-02-15T10:57:29;2.60;94.40
8707;DHT22;4390;49.302;9.306;2023-02-15T11:00:19;2.90;93.90
8707;DHT22;4390;49.302;9.306;2023-02-15T11:08:30;3.70;92.00
8707;DHT22;4390;49.302;9.306;2023-02-15T11:11:01;3.80;91.40
8707;DHT22;4390;49.302;9.306;2023-02-15T11:13:32;4.70;90.90
8707;DHT22;4390;49.302;9.306;2023-02-15T11:19:21;4.90;89.20
8707;DHT22;4390;49.302;9.306;2023-02-15T11:21:52;5.10;89.00
8707;DHT22;4390;49.302;9.306;2023-02-15T11:24:20;5.10;88.90
8707;DHT22;4390;49.302;9.306;2023-02-15T11:27:24;5.20;88.60
8707;DHT22;4390;49.302;9.306;2023-02-15T11:32:26;4.40;90.30
8707;DHT22;4390;49.302;9.306;2023-02-15T11:37:45;4.30;90.70
8707;DHT22;4390;49.302;9.306;2023-02-15T11:42:51;4.80;89.90
8707;DHT22;4390;49.302;9.306;2023-02-15T11:45:31;4.70;89.90
8707;DHT22;4390;49.302;9.306;2023-02-15T11:47:58;6.10;88.00
8707;DHT22;4390;49.302;9.306;2023-02-15T11:50:28;6.60;86.80
8707;DHT22;4390;49.302;9.306;2023-02-15T11:53:05;8.70;85.30
8707;DHT22;4390;49.302;9.306;2023-02-15T11:55:33;11.70;79.20
8707;DHT22;4390;49.302;9.306;2023-02-15T11:58:16;13.30;76.30
8707;DHT22;4390;49.302;9.306;2023-02-15T12:00:50;15.10;73.90
8707;DHT22;4390;49.302;9.306;2023-02-15T12:03:22;16.10;71.10
8707;DHT22;4390;49.302;9.306;2023-02-15T12:05:56;16.40;69.60
8707;DHT22;4390;49.302;9.306;2023-02-15T12:08:25;17.30;68.60
8707;DHT22;4390;49.302;9.306;2023-02-15T12:11:05;18.30;67.10
8707;DHT22;4390;49.302;9.306;2023-02-15T12:13:33;18.70;66.10
8707;DHT22;4390;49.302;9.306;2023-02-15T12:16:07;19.50;65.10
8707;DHT22;4390;49.302;9.306;2023-02-15T12:18:42;20.00;63.90
8707;DHT22;4390;49.302;9.306;2023-02-15T12:21:29;20.00;63.80
8707;DHT22;4390;49.302;9.306;2023-02-15T12:24:02;21.10;63.00
8707;DHT22;4390;49.302;9.306;2023-02-15T12:26:32;21.60;61.30
8707;DHT22;4390;49.302;9.306;2023-02-15T12:29:17;20.90;61.70
8707;DHT22;4390;49.302;9.306;2023-02-15T12:31:50;20.70;61.50
8707;DHT22;4390;49.302;9.306;2023-02-15T12:34:35;21.00;61.80
8707;DHT22;4390;49.302;9.306;2023-02-15T12:37:25;21.40;61.10
8707;DHT22;4390;49.302;9.306;2023-02-15T12:39:56;21.70;60.60
8707;DHT22;4390;49.302;9.306;2023-02-15T12:42:23;20.50;61.40
8707;DHT22;4390;49.302;9.306;2023-02-15T12:45:00;19.40;62.70
8707;DHT22;4390;49.302;9.306;2023-02-15T12:47:29;19.30;63.00
8707;DHT22;4390;49.302;9.306;2023-02-15T12:50:11;18.00;64.30
8707;DHT22;4390;49.302;9.306;2023-02-15T12:52:46;17.60;64.90
8707;DHT22;4390;49.302;9.306;2023-02-15T12:55:21;16.80;66.20
8707;DHT22;4390;49.302;9.306;2023-02-15T12:57:48;17.00;66.30
8707;DHT22;4390;49.302;9.306;2023-02-15T13:02:53;17.50;65.50
8707;DHT22;4390;49.302;9.306;2023-02-15T13:08:03;18.20;65.40
8707;DHT22;4390;49.302;9.306;2023-02-15T13:13:23;19.30;63.90
8707;DHT22;4390;49.302;9.306;2023-02-15T13:15:53;19.60;64.00
8707;DHT22;4390;49.302;9.306;2023-02-15T13:18:44;20.60;62.50
8707;DHT22;4390;49.302;9.306;2023-02-15T13:21:14;20.90;61.40
8707;DHT22;4390;49.302;9.306;2023-02-15T13:23:51;20.60;61.70
8707;DHT22;4390;49.302;9.306;2023-02-15T13:26:22;19.80;62.10
8707;DHT22;4390;49.302;9.306;2023-02-15T13:28:54;18.20;63.50
8707;DHT22;4390;49.302;9.306;2023-02-15T13:31:24;16.50;65.70
8707;DHT22;4390;49.302;9.306;2023-02-15T13:34:02;15.90;67.10
8707;DHT22;4390;49.302;9.306;2023-02-15T13:37:13;15.50;67.90
8707;DHT22;4390;49.302;9.306;2023-02-15T13:39:47;15.00;68.90
8707;DHT22;4390;49.302;9.306;2023-02-15T13:48:03;12.70;72.40
8707;DHT22;4390;49.302;9.306;2023-02-15T14:14:25;9.10;79.80
8707;DHT22;4390;49.302;9.306;2023-02-15T14:16:45;8.90;80.50
8707;DHT22;4390;49.302;9.306;2023-02-15T14:19:54;9.30;80.20
8707;DHT22;4390;49.302;9.306;2023-02-15T14:30:25;9.70;79.80
8707;DHT22;4390;49.302;9.306;2023-02-15T14:32:56;9.50;79.80
8707;DHT22;4390;49.302;9.306;2023-02-15T14:35:27;9.30;80.20
8707;DHT22;4390;49.302;9.306;2023-02-15T14:43:55;9.80;80.10
8707;DHT22;4390;49.302;9.306;2023-02-15T14:46:50;9.90;80.00
8707;DHT22;4390;49.302;9.306;2023-02-15T14:49:22;10.10;79.90
8707;DHT22;4390;49.302;9.306;2023-02-15T15:02:20;10.20;79.00
8707;DHT22;4390;49.302;9.306;2023-02-15T15:07:23;9.70;80.10
8707;DHT22;4390;49.302;9.306;2023-02-15T15:10:07;9.70;80.60
8707;DHT22;4390;49.302;9.306;2023-02-15T15:12:54;9.80;80.50
8707;DHT22;4390;49.302;9.306;2023-02-15T15:18:07;10.20;79.60
8707;DHT22;4390;49.302;9.306;2023-02-15T15:20:48;10.20;79.70
8707;DHT22;4390;49.302;9.306;2023-02-15T15:25:56;10.20;79.40
8707;DHT22;4390;49.302;9.306;2023-02-15T15:31:24;9.80;80.10
8707;DHT22;4390;49.302;9.306;2023-02-15T15:48:15;9.30;81.90
8707;DHT22;4390;49.302;9.306;2023-02-15T15:51:04;9.10;82.20
8707;DHT22;4390;49.302;9.306;2023-02-15T15:53:38;8.90;82.50
8707;DHT22;4390;49.302;9.306;2023-02-15T15:56:12;8.70;82.80
8707;DHT22;4390;49.302;9.306;2023-02-15T15:58:46;8.70;82.90
8707;DHT22;4390;49.302;9.306;2023-02-15T16:01:15;8.60;83.00
8707;DHT22;4390;49.302;9.306;2023-02-15T16:03:51;8.50;83.20
8707;DHT22;4390;49.302;9.306;2023-02-15T16:06:31;8.50;83.20
8707;DHT22;4390;49.302;9.306;2023-02-15T16:09:10;8.50;83.20
8707;DHT22;4390;49.302;9.306;2023-02-15T16:11:38;8.50;83.00
8707;DHT22;4390;49.302;9.306;2023-02-15T16:14:30;8.20;83.50
8707;DHT22;4390;49.302;9.306;2023-02-15T16:16:59;7.90;84.10
8707;DHT22;4390;49.302;9.306;2023-02-15T16:19:38;7.50;85.00
8707;DHT22;4390;49.302;9.306;2023-02-15T16:22:20;7.50;85.20
8707;DHT22;4390;49.302;9.306;2023-02-15T16:25:29;7.30;85.20
8707;DHT22;4390;49.302;9.306;2023-02-15T16:28:06;7.00;86.10
8707;DHT22;4390;49.302;9.306;2023-02-15T16:30:35;7.00;86.10
8707;DHT22;4390;49.302;9.306;2023-02-15T16:33:05;7.00;86.20
8707;DHT22;4390;49.302;9.306;2023-02-15T16:35:33;6.90;86.20
8707;DHT22;4390;49.302;9.306;2023-02-15T16:38:01;6.70;86.80
8707;DHT22;4390;49.302;9.306;2023-02-15T16:40:51;6.60;87.10
8707;DHT22;4390;49.302;9.306;2023-02-15T16:43:24;6.60;87.10
8707;DHT22;4390;49.302;9.306;2023-02-15T16:46:17;6.50;87.30
8707;DHT22;4390;49.302;9.306;2023-02-15T16:49:02;6.60;87.50
8707;DHT22;4390;49.302;9.306;2023-02-15T16:51:33;6.80;86.80
8707;DHT22;4390;49.302;9.306;2023-02-15T16:54:06;6.70;86.70
8707;DHT22;4390;49.302;9.306;2023-02-15T16:56:34;6.60;87.00
8707;DHT22;4390;49.302;9.306;2023-02-15T16:59:02;6.40;87.30
8707;DHT22;4390;49.302;9.306;2023-02-15T17:01:31;6.20;87.70
8707;DHT22;4390;49.302;9.306;2023-02-15T17:07:04;6.00;88.10
8707;DHT22;4390;49.302;9.306;2023-02-15T17:09:32;6.00;88.40
8707;DHT22;4390;49.302;9.306;2023-02-15T17:11:59;6.00;88.10
8707;DHT22;4390;49.302;9.306;2023-02-15T17:14:30;5.70;88.40
8707;DHT22;4390;49.302;9.306;2023-02-15T17:17:00;5.40;88.90
8707;DHT22;4390;49.302;9.306;2023-02-15T17:19:33;5.50;89.20
8707;DHT22;4390;49.302;9.306;2023-02-15T17:22:07;5.20;89.50
8707;DHT22;4390;49.302;9.306;2023-02-15T17:27:20;5.30;89.20
8707;DHT22;4390;49.302;9.306;2023-02-15T17:29:51;5.30;88.80
8707;DHT22;4390;49.302;9.306;2023-02-15T17:32:32;5.10;89.00
8707;DHT22;4390;49.302;9.306;2023-02-15T17:37:43;5.10;89.20
8707;DHT22;4390;49.302;9.306;2023-02-15T17:40:31;4.90;89.00
8707;DHT22;4390;49.302;9.306;2023-02-15T17:42:58;4.70;90.00
8707;DHT22;4390;49.302;9.306;2023-02-15T17:45:31;4.70;89.90
8707;DHT22;4390;49.302;9.306;2023-02-15T17:48:02;4.50;90.50
8707;DHT22;4390;49.302;9.306;2023-02-15T17:50:29;4.70;90.80
8707;DHT22;4390;49.302;9.306;2023-02-15T17:52:57;4.80;90.30
8707;DHT22;4390;49.302;9.306;2023-02-15T17:55:28;4.90;89.80
8707;DHT22;4390;49.302;9.306;2023-02-15T17:58:12;4.70;89.90
8707;DHT22;4390;49.302;9.306;2023-02-15T18:00:46;4.70;90.10
8707;DHT22;4390;49.302;9.306;2023-02-15T18:03:45;4.50;90.20
8707;DHT22;4390;49.302;9.306;2023-02-15T18:06:32;4.40;90.30
8707;DHT22;4390;49.302;9.306;2023-02-15T18:09:19;4.20;90.40
8707;DHT22;4390;49.302;9.306;2023-02-15T18:12:19;4.20;90.60
8707;DHT22;4390;49.302;9.306;2023-02-15T18:14:46;4.20;90.30
8707;DHT22;4390;49.302;9.306;2023-02-15T18:17:14;4.20;90.40
8707;DHT22;4390;49.302;9.306;2023-02-15T18:19:43;4.10;90.60
8707;DHT22;4390;49.302;9.306;2023-02-15T18:22:13;4.00;90.80
8707;DHT22;4390;49.302;9.306;2023-02-15T18:24:47;4.00;90.80
8707;DHT22;4390;49.302;9.306;2023-02-15T18:27:15;4.10;90.80
8707;DHT22;4390;49.302;9.306;2023-02-15T18:29:43;4.00;90.70
8707;DHT22;4390;49.302;9.306;2023-02-15T18:32:16;3.90;90.90
8707;DHT22;4390;49.302;9.306;2023-02-15T18:34:46;3.90;90.90
8707;DHT22;4390;49.302;9.306;2023-02-15T18:37:17;3.70;91.00
8707;DHT22;4390;49.302;9.306;2023-02-15T18:39:47;3.70;91.30
8707;DHT22;4390;49.302;9.306;2023-02-15T18:44:49;3.60;91.00
8707;DHT22;4390;49.302;9.306;2023-02-15T18:47:19;3.60;91.10
8707;DHT22;4390;49.302;9.306;2023-02-15T18:49:45;3.50;91.40
8707;DHT22;4390;49.302;9.306;2023-02-15T18:52:25;3.40;91.80
8707;DHT22;4390;49.302;9.306;2023-02-15T18:55:03;3.50;91.40
8707;DHT22;4390;49.302;9.306;2023-02-15T18:57:31;3.40;91.90
8707;DHT22;4390;49.302;9.306;2023-02-15T19:00:17;3.30;91.80
8707;DHT22;4390;49.302;9.306;2023-02-15T19:02:47;3.20;91.70
8707;DHT22;4390;49.302;9.306;2023-02-15T19:05:14;3.30;91.40
8707;DHT22;4390;49.302;9.306;2023-02-15T19:07:44;3.20;91.30
8707;DHT22;4390;49.302;9.306;2023-02-15T19:10:17;3.20;91.00
8707;DHT22;4390;49.302;9.306;2023-02-15T19:12:45;3.10;91.40
8707;DHT22;4390;49.302;9.306;2023-02-15T19:15:17;3.10;91.40
8707;DHT22;4390;49.302;9.306;2023-02-15T19:17:47;3.10;91.40
8707;DHT22;4390;49.302;9.306;2023-02-15T19:20:24;3.20;91.50
8707;DHT22;4390;49.302;9.306;2023-02-15T19:22:52;3.10;91.40
8707;DHT22;4390;49.302;9.306;2023-02-15T19:25:25;3.00;91.60
8707;DHT22;4390;49.302;9.306;2023-02-15T19:27:53;2.90;91.80
8707;DHT22;4390;49.302;9.306;2023-02-15T19:30:29;2.90;91.90
8707;DHT22;4390;49.302;9.306;2023-02-15T19:32:58;2.80;91.70
8707;DHT22;4390;49.302;9.306;2023-02-15T19:35:29;2.70;92.00
8707;DHT22;4390;49.302;9.306;2023-02-15T19:37:59;2.80;91.60
8707;DHT22;4390;49.302;9.306;2023-02-15T19:40:35;2.80;91.40
8707;DHT22;4390;49.302;9.306;2023-02-15T19:43:02;2.80;91.40
8707;DHT22;4390;49.302;9.306;2023-02-15T19:45:30;2.80;91.20
8707;DHT22;4390;49.302;9.306;2023-02-15T19:48:00;2.80;91.10
8707;DHT22;4390;49.302;9.306;2023-02-15T19:50:30;2.70;91.00
8707;DHT22;4390;49.302;9.306;2023-02-15T19:52:56;2.70;91.20
8707;DHT22;4390;49.302;9.306;2023-02-15T19:55:26;2.70;91.20
8707;DHT22;4390;49.302;9.306;2023-02-15T19:57:54;2.80;91.30
8707;DHT22;4390;49.302;9.306;2023-02-15T20:00:24;2.80;91.40
8707;DHT22;4390;49.302;9.306;2023-02-15T20:02:52;2.60;91.40
8707;DHT22;4390;49.302;9.306;2023-02-15T20:05:19;2.50;91.80
8707;DHT22;4390;49.302;9.306;2023-02-15T20:07:52;2.50;92.10
8707;DHT22;4390;49.302;9.306;2023-02-15T20:12:49;2.40;92.80
8707;DHT22;4390;49.302;9.306;2023-02-15T20:15:22;2.50;92.80